createdAt,value
2016-06-15T00:00:14.237Z,0
2016-06-15T00:01:14.085Z,0
2016-06-15T00:02:14.275Z,0
2016-06-15T00:03:14.294Z,0
2016-06-15T00:04:14.312Z,0
2016-06-15T00:05:15.159Z,0
2016-06-15T00:06:14.365Z,0
2016-06-15T00:07:14.400Z,0
2016-06-15T00:08:14.449Z,0
2016-06-15T00:09:14.452Z,0
2016-06-15T00:10:14.472Z,0
2016-06-15T00:11:14.490Z,0
2016-06-15T00:12:14.509Z,0
2016-06-15T00:13:14.386Z,0
2016-06-15T00:14:14.578Z,0
2016-06-15T00:15:14.628Z,0
2016-06-15T00:16:14.631Z,0
2016-06-15T00:17:14.649Z,0
2016-06-15T00:18:14.699Z,0
2016-06-15T00:19:14.702Z,0
2016-06-15T00:20:14.736Z,0
2016-06-15T00:21:14.756Z,0
2016-06-15T00:22:14.774Z,0
2016-06-15T00:23:14.809Z,0
2016-06-15T00:24:14.858Z,0
2016-06-15T00:25:14.706Z,0
2016-06-15T00:26:14.895Z,0
2016-06-15T00:27:14.915Z,0
2016-06-15T00:28:14.776Z,0
2016-06-15T00:29:14.968Z,0
2016-06-15T00:30:14.845Z,0
2016-06-15T00:31:15.005Z,0
2016-06-15T00:32:15.039Z,0
2016-06-15T00:33:15.058Z,0
2016-06-15T00:34:15.092Z,0
2016-06-15T00:35:15.267Z,0
2016-06-15T00:36:15.177Z,0
2016-06-15T00:37:15.163Z,0
2016-06-15T00:38:15.198Z,0
2016-06-15T00:39:15.217Z,0
2016-06-15T00:40:15.080Z,0
2016-06-15T00:41:15.113Z,0
2016-06-15T00:42:15.289Z,0
2016-06-15T00:43:15.323Z,0
2016-06-15T00:44:15.342Z,0
2016-06-15T00:45:15.376Z,0
2016-06-15T00:46:15.410Z,0
2016-06-15T00:47:15.444Z,0
2016-06-15T00:48:15.447Z,0
2016-06-15T00:49:15.466Z,0
2016-06-15T00:50:15.532Z,0
2016-06-15T00:51:15.536Z,0
2016-06-15T00:52:15.553Z,0
2016-06-15T00:53:15.573Z,0
2016-06-15T00:54:15.607Z,0
2016-06-15T00:55:15.626Z,0
2016-06-15T00:56:15.691Z,0
2016-06-15T00:57:15.538Z,0
2016-06-15T00:58:15.728Z,0
2016-06-15T00:59:15.798Z,0
2016-06-15T01:00:15.854Z,0
2016-06-15T01:01:15.924Z,0
2016-06-15T01:02:15.854Z,0
2016-06-15T01:03:16.031Z,0
2016-06-15T01:04:16.063Z,0
2016-06-15T01:05:16.688Z,0
2016-06-15T01:06:16.157Z,0
2016-06-15T01:07:16.173Z,0
2016-06-15T01:08:16.214Z,0
2016-06-15T01:09:16.238Z,0
2016-06-15T01:10:16.276Z,0
2016-06-15T01:11:16.301Z,0
2016-06-15T01:12:16.339Z,0
2016-06-15T01:13:16.361Z,0
2016-06-15T01:14:16.396Z,0
2016-06-15T01:15:16.276Z,0
2016-06-15T01:16:16.453Z,0
2016-06-15T01:17:16.473Z,0
2016-06-15T01:18:16.540Z,0
2016-06-15T01:19:16.528Z,0
2016-06-15T01:20:17.375Z,0
2016-06-15T01:21:16.598Z,0
2016-06-15T01:22:16.618Z,0
2016-06-15T01:23:16.636Z,0
2016-06-15T01:24:16.655Z,0
2016-06-15T01:25:16.674Z,0
2016-06-15T01:26:16.723Z,0
2016-06-15T01:27:16.759Z,0
2016-06-15T01:28:16.761Z,0
2016-06-15T01:29:16.796Z,0
2016-06-15T01:30:16.814Z,0
2016-06-15T01:31:16.833Z,0
2016-06-15T01:32:16.866Z,0
2016-06-15T01:33:16.886Z,0
2016-06-15T01:34:16.919Z,0
2016-06-15T01:35:17.283Z,0
2016-06-15T01:36:16.972Z,0
2016-06-15T01:37:16.992Z,0
2016-06-15T01:38:17.010Z,0
2016-06-15T01:39:17.045Z,0
2016-06-15T01:40:17.079Z,0
2016-06-15T01:41:17.113Z,0
2016-06-15T01:42:17.132Z,0
2016-06-15T01:43:16.994Z,0
2016-06-15T01:44:17.186Z,0
2016-06-15T01:45:17.203Z,0
2016-06-15T01:46:17.253Z,0
2016-06-15T01:47:17.100Z,0
2016-06-15T01:48:17.276Z,0
2016-06-15T01:49:17.326Z,0
2016-06-15T01:50:18.329Z,0
2016-06-15T01:51:17.207Z,0
2016-06-15T01:52:17.382Z,0
2016-06-15T01:53:17.400Z,0
2016-06-15T01:54:17.419Z,0
2016-06-15T01:55:17.469Z,0
2016-06-15T01:56:17.487Z,0
2016-06-15T01:57:17.553Z,0
2016-06-15T01:58:17.540Z,0
2016-06-15T01:59:17.560Z,0
2016-06-15T02:00:17.422Z,0
2016-06-15T02:01:17.613Z,0
2016-06-15T02:02:17.631Z,0
2016-06-15T02:03:17.666Z,0
2016-06-15T02:04:17.684Z,0
2016-06-15T02:05:17.937Z,0
2016-06-15T02:06:17.768Z,0
2016-06-15T02:07:17.615Z,0
2016-06-15T02:08:17.790Z,0
2016-06-15T02:09:17.809Z,0
2016-06-15T02:10:17.858Z,0
2016-06-15T02:11:17.878Z,0
2016-06-15T02:12:17.897Z,0
2016-06-15T02:13:17.931Z,0
2016-06-15T02:14:17.965Z,0
2016-06-15T02:15:17.812Z,0
2016-06-15T02:16:18.002Z,0
2016-06-15T02:17:18.037Z,0
2016-06-15T02:18:18.040Z,0
2016-06-15T02:19:18.074Z,0
2016-06-15T02:20:19.046Z,0
2016-06-15T02:21:18.314Z,0
2016-06-15T02:22:18.146Z,0
2016-06-15T02:23:18.180Z,0
2016-06-15T02:24:18.215Z,0
2016-06-15T02:25:18.233Z,0
2016-06-15T02:26:18.298Z,0
2016-06-15T02:27:18.285Z,0
2016-06-15T02:28:18.305Z,0
2016-06-15T02:29:18.354Z,0
2016-06-15T02:30:18.202Z,0
2016-06-15T02:31:18.235Z,0
2016-06-15T02:32:18.411Z,0
2016-06-15T02:33:18.429Z,0
2016-06-15T02:34:18.464Z,0
2016-06-15T02:35:18.998Z,0
2016-06-15T02:36:18.532Z,0
2016-06-15T02:37:18.535Z,0
2016-06-15T02:38:18.569Z,0
2016-06-15T02:39:18.604Z,0
2016-06-15T02:40:18.622Z,0
2016-06-15T02:41:18.642Z,0
2016-06-15T02:42:18.675Z,0
2016-06-15T02:43:18.726Z,0
2016-06-15T02:44:18.713Z,0
2016-06-15T02:45:18.763Z,0
2016-06-15T02:46:18.766Z,0
2016-06-15T02:47:18.785Z,0
2016-06-15T02:48:18.679Z,0
2016-06-15T02:49:18.885Z,0
2016-06-15T02:50:19.076Z,0
2016-06-15T02:51:19.109Z,0
2016-06-15T02:52:18.926Z,0
2016-06-15T02:53:18.975Z,0
2016-06-15T02:54:18.994Z,0
2016-06-15T02:55:19.013Z,0
2016-06-15T02:56:18.875Z,0
2016-06-15T02:57:19.049Z,0
2016-06-15T02:58:19.069Z,0
2016-06-15T02:59:19.133Z,0
2016-06-15T03:00:19.153Z,0
2016-06-15T03:01:19.172Z,0
2016-06-15T03:02:19.207Z,0
2016-06-15T03:03:19.209Z,0
2016-06-15T03:04:19.087Z,0
2016-06-15T03:05:19.277Z,0
2016-06-15T03:06:19.141Z,0
2016-06-15T03:07:19.331Z,0
2016-06-15T03:08:19.334Z,0
2016-06-15T03:09:19.369Z,0
2016-06-15T03:10:19.386Z,0
2016-06-15T03:11:19.406Z,0
2016-06-15T03:12:19.440Z,0
2016-06-15T03:13:19.459Z,0
2016-06-15T03:14:19.493Z,0
2016-06-15T03:15:19.512Z,0
2016-06-15T03:16:19.546Z,0
2016-06-15T03:17:19.425Z,0
2016-06-15T03:18:19.458Z,0
2016-06-15T03:19:19.617Z,0
2016-06-15T03:20:19.573Z,0
2016-06-15T03:21:20.139Z,0
2016-06-15T03:22:19.548Z,0
2016-06-15T03:23:19.724Z,0
2016-06-15T03:24:19.773Z,0
2016-06-15T03:25:19.808Z,0
2016-06-15T03:26:19.811Z,0
2016-06-15T03:27:19.830Z,0
2016-06-15T03:28:19.880Z,0
2016-06-15T03:29:19.883Z,0
2016-06-15T03:30:19.901Z,0
2016-06-15T03:31:19.795Z,0
2016-06-15T03:32:19.954Z,0
2016-06-15T03:33:19.832Z,0
2016-06-15T03:34:20.008Z,0
2016-06-15T03:35:20.026Z,0
2016-06-15T03:36:20.077Z,0
2016-06-15T03:37:20.095Z,0
2016-06-15T03:38:20.129Z,0
2016-06-15T03:39:20.148Z,0
2016-06-15T03:40:20.151Z,0
2016-06-15T03:41:20.029Z,0
2016-06-15T03:42:20.235Z,0
2016-06-15T03:43:20.238Z,0
2016-06-15T03:44:20.257Z,0
2016-06-15T03:45:20.292Z,0
2016-06-15T03:46:20.310Z,0
2016-06-15T03:47:20.345Z,0
2016-06-15T03:48:20.363Z,0
2016-06-15T03:49:20.429Z,0
2016-06-15T03:50:20.431Z,0
2016-06-15T03:51:21.076Z,0
2016-06-15T03:52:20.468Z,0
2016-06-15T03:53:20.504Z,0
2016-06-15T03:54:20.521Z,0
2016-06-15T03:55:20.541Z,0
2016-06-15T03:56:20.559Z,0
2016-06-15T03:57:20.453Z,0
2016-06-15T03:58:20.613Z,0
2016-06-15T03:59:20.647Z,0
2016-06-15T04:00:20.681Z,0
2016-06-15T04:01:20.763Z,0
2016-06-15T04:02:20.734Z,0
2016-06-15T04:03:20.753Z,0
2016-06-15T04:04:20.818Z,0
2016-06-15T04:05:20.822Z,0
2016-06-15T04:06:21.340Z,0
2016-06-15T04:07:20.875Z,0
2016-06-15T04:08:20.878Z,0
2016-06-15T04:09:20.912Z,0
2016-06-15T04:10:20.931Z,5
2016-06-15T04:11:20.949Z,5
2016-06-15T04:12:20.983Z,5
2016-06-15T04:13:21.018Z,5
2016-06-15T04:14:21.036Z,5
2016-06-15T04:15:21.056Z,5
2016-06-15T04:16:21.386Z,5
2016-06-15T04:17:20.953Z,10
2016-06-15T04:18:21.143Z,10
2016-06-15T04:19:21.162Z,10
2016-06-15T04:20:21.180Z,10
2016-06-15T04:21:21.605Z,5
2016-06-15T04:22:21.249Z,5
2016-06-15T04:23:21.267Z,5
2016-06-15T04:24:21.287Z,5
2016-06-15T04:25:21.320Z,5
2016-06-15T04:26:21.340Z,5
2016-06-15T04:27:21.358Z,5
2016-06-15T04:28:21.393Z,5
2016-06-15T04:29:21.427Z,5
2016-06-15T04:30:21.305Z,5
2016-06-15T04:31:21.511Z,5
2016-06-15T04:32:21.342Z,5
2016-06-15T04:33:21.533Z,5
2016-06-15T04:34:21.551Z,5
2016-06-15T04:35:21.586Z,10
2016-06-15T04:36:22.011Z,10
2016-06-15T04:37:21.623Z,10
2016-06-15T04:38:21.657Z,10
2016-06-15T04:39:21.676Z,10
2016-06-15T04:40:21.711Z,10
2016-06-15T04:41:21.744Z,10
2016-06-15T04:42:21.763Z,15
2016-06-15T04:43:21.766Z,15
2016-06-15T04:44:21.800Z,15
2016-06-15T04:45:21.834Z,10
2016-06-15T04:46:21.854Z,15
2016-06-15T04:47:21.887Z,15
2016-06-15T04:48:21.938Z,20
2016-06-15T04:49:21.769Z,25
2016-06-15T04:50:21.960Z,25
2016-06-15T04:51:22.338Z,30
2016-06-15T04:52:22.013Z,30
2016-06-15T04:53:22.047Z,35
2016-06-15T04:54:22.066Z,35
2016-06-15T04:55:21.928Z,30
2016-06-15T04:56:22.103Z,25
2016-06-15T04:57:22.138Z,25
2016-06-15T04:58:22.156Z,25
2016-06-15T04:59:22.191Z,25
2016-06-15T05:00:22.209Z,25
2016-06-15T05:01:22.291Z,25
2016-06-15T05:02:22.262Z,25
2016-06-15T05:03:22.140Z,30
2016-06-15T05:04:22.331Z,35
2016-06-15T05:05:22.350Z,40
2016-06-15T05:06:22.603Z,40
2016-06-15T05:07:22.418Z,45
2016-06-15T05:08:22.422Z,45
2016-06-15T05:09:22.440Z,50
2016-06-15T05:10:22.319Z,50
2016-06-15T05:11:22.508Z,50
2016-06-15T05:12:22.372Z,45
2016-06-15T05:13:22.406Z,45
2016-06-15T05:14:22.581Z,45
2016-06-15T05:15:22.599Z,45
2016-06-15T05:16:22.634Z,50
2016-06-15T05:17:22.652Z,55
2016-06-15T05:18:22.530Z,65
2016-06-15T05:19:22.737Z,75
2016-06-15T05:20:22.739Z,290
2016-06-15T05:21:22.868Z,115
2016-06-15T05:22:22.823Z,100
2016-06-15T05:23:22.827Z,95
2016-06-15T05:24:22.845Z,135
2016-06-15T05:25:22.865Z,120
2016-06-15T05:26:22.882Z,145
2016-06-15T05:27:22.933Z,225
2016-06-15T05:28:22.967Z,125
2016-06-15T05:29:22.986Z,120
2016-06-15T05:30:22.848Z,135
2016-06-15T05:31:23.023Z,105
2016-06-15T05:32:23.058Z,100
2016-06-15T05:33:22.920Z,90
2016-06-15T05:34:23.095Z,90
2016-06-15T05:35:23.161Z,90
2016-06-15T05:36:23.179Z,105
2016-06-15T05:37:23.182Z,105
2016-06-15T05:38:23.216Z,110
2016-06-15T05:39:23.219Z,120
2016-06-15T05:40:23.253Z,125
2016-06-15T05:41:23.289Z,165
2016-06-15T05:42:23.307Z,135
2016-06-15T05:43:23.356Z,115
2016-06-15T05:44:23.360Z,95
2016-06-15T05:45:23.379Z,145
2016-06-15T05:46:23.445Z,65
2016-06-15T05:47:23.432Z,60
2016-06-15T05:48:23.467Z,60
2016-06-15T05:49:23.485Z,60
2016-06-15T05:50:23.503Z,65
2016-06-15T05:51:24.006Z,55
2016-06-15T05:52:23.573Z,60
2016-06-15T05:53:23.590Z,55
2016-06-15T05:54:23.610Z,50
2016-06-15T05:55:23.643Z,50
2016-06-15T05:56:23.678Z,50
2016-06-15T05:57:23.697Z,50
2016-06-15T05:58:23.731Z,55
2016-06-15T05:59:23.750Z,55
2016-06-15T06:00:23.628Z,50
2016-06-15T06:01:23.803Z,60
2016-06-15T06:02:23.822Z,60
2016-06-15T06:03:23.871Z,65
2016-06-15T06:04:23.891Z,65
2016-06-15T06:05:23.924Z,60
2016-06-15T06:06:24.458Z,60
2016-06-15T06:07:23.962Z,60
2016-06-15T06:08:23.997Z,60
2016-06-15T06:09:24.030Z,60
2016-06-15T06:10:24.065Z,60
2016-06-15T06:11:24.068Z,55
2016-06-15T06:12:24.102Z,55
2016-06-15T06:13:24.138Z,55
2016-06-15T06:14:24.155Z,60
2016-06-15T06:15:24.191Z,65
2016-06-15T06:16:24.224Z,70
2016-06-15T06:17:24.243Z,80
2016-06-15T06:18:24.261Z,85
2016-06-15T06:19:24.281Z,90
2016-06-15T06:20:24.331Z,110
2016-06-15T06:21:24.365Z,85
2016-06-15T06:22:24.368Z,80
2016-06-15T06:23:24.402Z,80
2016-06-15T06:24:24.264Z,85
2016-06-15T06:25:24.455Z,85
2016-06-15T06:26:24.474Z,80
2016-06-15T06:27:24.508Z,80
2016-06-15T06:28:24.526Z,75
2016-06-15T06:29:24.546Z,75
2016-06-15T06:30:24.579Z,75
2016-06-15T06:31:24.599Z,75
2016-06-15T06:32:24.663Z,65
2016-06-15T06:33:24.667Z,65
2016-06-15T06:34:24.686Z,65
2016-06-15T06:35:24.720Z,65
2016-06-15T06:36:24.739Z,75
2016-06-15T06:37:24.616Z,75
2016-06-15T06:38:24.792Z,65
2016-06-15T06:39:24.810Z,55
2016-06-15T06:40:24.845Z,50
2016-06-15T06:41:24.879Z,40
2016-06-15T06:42:24.898Z,30
2016-06-15T06:43:24.932Z,25
2016-06-15T06:44:29.825Z,25
2016-06-15T06:45:24.986Z,25
2016-06-15T06:46:25.019Z,30
2016-06-15T06:47:25.023Z,25
2016-06-15T06:48:25.056Z,25
2016-06-15T06:49:25.091Z,20
2016-06-15T06:50:25.126Z,15
2016-06-15T06:51:26.629Z,15
2016-06-15T06:52:25.194Z,10
2016-06-15T06:53:25.197Z,10
2016-06-15T06:54:25.231Z,10
2016-06-15T06:55:25.251Z,15
2016-06-15T06:56:25.128Z,20
2016-06-15T06:57:25.460Z,25
2016-06-15T06:58:25.353Z,30
2016-06-15T06:59:25.372Z,35
2016-06-15T07:00:25.391Z,40
2016-06-15T07:01:25.410Z,50
2016-06-15T07:02:25.428Z,55
2016-06-15T07:03:25.494Z,65
2016-06-15T07:04:25.497Z,65
2016-06-15T07:05:25.515Z,60
2016-06-15T07:06:25.909Z,65
2016-06-15T07:07:25.568Z,70
2016-06-15T07:08:25.618Z,65
2016-06-15T07:09:25.840Z,55
2016-06-15T07:10:25.655Z,50
2016-06-15T07:11:25.691Z,45
2016-06-15T07:12:25.755Z,40
2016-06-15T07:13:25.603Z,45
2016-06-15T07:14:25.746Z,60
2016-06-15T07:15:25.781Z,135
2016-06-15T07:16:25.846Z,130
2016-06-15T07:17:25.834Z,210
2016-06-15T07:18:25.712Z,135
2016-06-15T07:19:25.902Z,180
2016-06-15T07:20:25.921Z,185
2016-06-15T07:21:26.675Z,245
2016-06-15T07:22:26.005Z,320
2016-06-15T07:23:26.070Z,635
2016-06-15T07:24:26.042Z,650
2016-06-15T07:25:26.077Z,260
2016-06-15T07:26:26.095Z,260
2016-06-15T07:27:26.115Z,650
2016-06-15T07:28:26.149Z,615
2016-06-15T07:29:26.168Z,315
2016-06-15T07:30:26.186Z,170
2016-06-15T07:31:26.220Z,125
2016-06-15T07:32:26.255Z,560
2016-06-15T07:33:26.305Z,210
2016-06-15T07:34:26.308Z,405
2016-06-15T07:35:26.326Z,135
2016-06-15T07:36:27.298Z,155
2016-06-15T07:37:26.613Z,130
2016-06-15T07:38:26.413Z,100
2016-06-15T07:39:26.448Z,95
2016-06-15T07:40:26.514Z,250
2016-06-15T07:41:26.580Z,170
2016-06-15T07:42:26.535Z,145
2016-06-15T07:43:26.601Z,145
2016-06-15T07:44:26.620Z,125
2016-06-15T07:45:26.607Z,120
2016-06-15T07:46:26.657Z,115
2016-06-15T07:47:26.660Z,120
2016-06-15T07:48:26.694Z,155
2016-06-15T07:49:26.744Z,160
2016-06-15T07:50:26.763Z,255
2016-06-15T07:51:28.235Z,415
2016-06-15T07:52:26.848Z,525
2016-06-15T07:53:26.850Z,495
2016-06-15T07:54:26.884Z,505
2016-06-15T07:55:26.904Z,480
2016-06-15T07:56:26.938Z,180
2016-06-15T07:57:26.972Z,275
2016-06-15T07:58:26.990Z,215
2016-06-15T07:59:27.041Z,440
2016-06-15T08:00:27.059Z,330
2016-06-15T08:01:27.094Z,115
2016-06-15T08:02:33.503Z,100
2016-06-15T08:03:27.131Z,80
2016-06-15T08:04:27.196Z,70
2016-06-15T08:05:27.184Z,65
2016-06-15T08:06:27.672Z,70
2016-06-15T08:07:27.924Z,75
2016-06-15T08:08:27.272Z,80
2016-06-15T08:09:27.337Z,80
2016-06-15T08:10:27.339Z,70
2016-06-15T08:11:27.375Z,65
2016-06-15T08:12:27.377Z,65
2016-06-15T08:13:27.428Z,60
2016-06-15T08:14:27.306Z,60
2016-06-15T08:15:27.496Z,55
2016-06-15T08:16:27.531Z,55
2016-06-15T08:17:27.565Z,55
2016-06-15T08:18:27.583Z,50
2016-06-15T08:19:27.305Z,55
2016-06-15T08:20:27.464Z,50
2016-06-15T08:21:27.359Z,50
2016-06-15T08:22:37.517Z,45
2016-06-15T08:23:27.459Z,40
2016-06-15T08:24:27.462Z,40
2016-06-15T08:25:27.761Z,40
2016-06-15T08:26:27.796Z,40
2016-06-15T08:27:27.892Z,40
2016-06-15T08:28:27.880Z,50
2016-06-15T08:29:27.727Z,55
2016-06-15T08:30:27.792Z,190
2016-06-15T08:31:27.639Z,155
2016-06-15T08:32:27.971Z,130
2016-06-15T08:33:27.989Z,120
2016-06-15T08:34:28.024Z,125
2016-06-15T08:35:28.074Z,125
2016-06-15T08:36:28.124Z,120
2016-06-15T08:37:28.470Z,115
2016-06-15T08:38:28.144Z,100
2016-06-15T08:39:28.211Z,90
2016-06-15T08:40:28.198Z,95
2016-06-15T08:41:28.217Z,90
2016-06-15T08:42:28.251Z,80
2016-06-15T08:43:28.285Z,65
2016-06-15T08:44:28.335Z,60
2016-06-15T08:45:28.339Z,55
2016-06-15T08:46:28.388Z,50
2016-06-15T08:47:28.251Z,55
2016-06-15T08:48:28.425Z,60
2016-06-15T08:49:28.319Z,60
2016-06-15T08:50:28.510Z,70
2016-06-15T08:51:28.731Z,85
2016-06-15T08:52:28.704Z,95
2016-06-15T08:53:28.581Z,110
2016-06-15T08:54:28.632Z,120
2016-06-15T08:55:28.650Z,125
2016-06-15T08:56:28.653Z,120
2016-06-15T08:57:28.688Z,115
2016-06-15T08:58:28.722Z,115
2016-06-15T08:59:28.444Z,110
2016-06-15T09:00:35.400Z,110
2016-06-15T09:01:33.732Z,115
2016-06-15T09:02:28.844Z,115
2016-06-15T09:03:28.863Z,120
2016-06-15T09:04:28.897Z,125
2016-06-15T09:05:28.775Z,125
2016-06-15T09:06:29.591Z,130
2016-06-15T09:07:29.437Z,130
2016-06-15T09:08:29.004Z,130
2016-06-15T09:09:29.037Z,130
2016-06-15T09:10:29.087Z,130
2016-06-15T09:11:29.107Z,130
2016-06-15T09:12:28.952Z,135
2016-06-15T09:13:40.577Z,140
2016-06-15T09:14:29.169Z,140
2016-06-15T09:15:45.268Z,140
2016-06-15T09:16:29.284Z,140
2016-06-15T09:17:29.333Z,135
2016-06-15T09:18:29.306Z,135
2016-06-15T09:19:29.324Z,135
2016-06-15T09:20:29.358Z,130
2016-06-15T09:21:29.393Z,125
2016-06-15T09:22:29.286Z,125
2016-06-15T09:23:29.431Z,120
2016-06-15T09:24:29.339Z,120
2016-06-15T09:25:29.499Z,115
2016-06-15T09:26:29.517Z,110
2016-06-15T09:27:29.552Z,105
2016-06-15T09:28:29.571Z,105
2016-06-15T09:29:29.646Z,105
2016-06-15T09:30:29.493Z,110
2016-06-15T09:31:29.668Z,115
2016-06-15T09:32:29.703Z,115
2016-06-15T09:33:29.425Z,120
2016-06-15T09:34:29.770Z,120
2016-06-15T09:35:29.806Z,120
2016-06-15T09:36:29.809Z,125
2016-06-15T09:37:29.857Z,135
2016-06-15T09:38:29.876Z,140
2016-06-15T09:39:29.754Z,150
2016-06-15T09:40:29.930Z,150
2016-06-15T09:41:29.964Z,155
2016-06-15T09:42:30.014Z,165
2016-06-15T09:43:30.033Z,145
2016-06-15T09:44:30.051Z,140
2016-06-15T09:45:30.087Z,125
2016-06-15T09:46:30.104Z,120
2016-06-15T09:47:30.138Z,115
2016-06-15T09:48:29.735Z,115
2016-06-15T09:49:29.911Z,120
2016-06-15T09:50:30.272Z,120
2016-06-15T09:51:30.261Z,115
2016-06-15T09:52:33.514Z,110
2016-06-15T09:53:30.048Z,110
2016-06-15T09:54:30.331Z,105
2016-06-15T09:55:30.367Z,105
2016-06-15T09:56:30.401Z,100
2016-06-15T09:57:30.419Z,95
2016-06-15T09:58:30.454Z,95
2016-06-15T09:59:30.489Z,95
2016-06-15T10:00:30.507Z,105
2016-06-15T10:01:30.541Z,110
2016-06-15T10:02:30.575Z,110
2016-06-15T10:03:30.609Z,115
2016-06-15T10:04:30.491Z,115
2016-06-15T10:05:30.721Z,115
2016-06-15T10:06:30.795Z,110
2016-06-15T10:07:30.714Z,105
2016-06-15T10:08:30.928Z,115
2016-06-15T10:09:30.991Z,115
2016-06-15T10:10:31.024Z,120
2016-06-15T10:11:31.071Z,115
2016-06-15T10:12:31.121Z,110
2016-06-15T10:13:31.170Z,110
2016-06-15T10:14:30.886Z,105
2016-06-15T10:15:31.222Z,105
2016-06-15T10:16:37.652Z,105
2016-06-15T10:17:47.786Z,105
2016-06-15T10:18:31.669Z,100
2016-06-15T10:19:31.379Z,100
2016-06-15T10:20:31.400Z,100
2016-06-15T10:21:31.436Z,100
2016-06-15T10:22:32.066Z,100
2016-06-15T10:23:31.493Z,100
2016-06-15T10:24:31.544Z,100
2016-06-15T10:25:31.548Z,105
2016-06-15T10:26:31.614Z,105
2016-06-15T10:27:31.616Z,110
2016-06-15T10:28:31.636Z,110
2016-06-15T10:29:31.671Z,110
2016-06-15T10:30:31.705Z,110
2016-06-15T10:31:31.755Z,115
2016-06-15T10:32:31.775Z,115
2016-06-15T10:33:31.778Z,115
2016-06-15T10:34:31.829Z,110
2016-06-15T10:35:36.285Z,110
2016-06-15T10:36:43.413Z,110
2016-06-15T10:37:58.606Z,110
2016-06-15T10:38:52.450Z,95
2016-06-15T10:39:58.094Z,95
2016-06-15T10:41:13.913Z,90
2016-06-15T10:42:40.619Z,85
2016-06-15T10:43:10.029Z,85
2016-06-15T10:43:55.404Z,85
2016-06-15T10:44:55.454Z,85
2016-06-15T10:46:29.039Z,85
2016-06-15T10:47:35.791Z,90
2016-06-15T10:48:49.950Z,95
2016-06-15T10:49:47.126Z,95
2016-06-15T10:50:44.285Z,95
2016-06-15T10:52:06.772Z,95
2016-06-15T10:53:20.388Z,90
2016-06-15T10:55:47.456Z,95
2016-06-15T10:56:00.159Z,100
2016-06-15T10:57:00.209Z,115
2016-06-15T10:58:00.197Z,125
2016-06-15T10:59:00.231Z,120
2016-06-15T11:00:00.282Z,130
2016-06-15T11:01:00.285Z,130
2016-06-15T11:02:00.303Z,125
2016-06-15T11:03:00.353Z,120
2016-06-15T11:04:00.372Z,115
2016-06-15T11:05:00.406Z,105
2016-06-15T11:06:00.487Z,95
2016-06-15T11:07:00.319Z,90
2016-06-15T11:08:00.712Z,85
2016-06-15T11:09:00.528Z,85
2016-06-15T11:10:00.563Z,80
2016-06-15T11:11:00.580Z,75
2016-06-15T11:12:00.475Z,70
2016-06-15T11:13:00.650Z,65
2016-06-15T11:14:00.512Z,60
2016-06-15T11:15:00.686Z,60
2016-06-15T11:16:00.737Z,55
2016-06-15T11:17:00.818Z,50
2016-06-15T11:18:00.821Z,50
2016-06-15T11:19:00.810Z,55
2016-06-15T11:20:00.858Z,55
2016-06-15T11:21:00.878Z,55
2016-06-15T11:22:00.975Z,50
2016-06-15T11:23:01.071Z,45
2016-06-15T11:24:00.949Z,45
2016-06-15T11:25:00.984Z,40
2016-06-15T11:26:01.033Z,35
2016-06-15T11:27:01.052Z,35
2016-06-15T11:28:01.087Z,30
2016-06-15T11:29:01.104Z,35
2016-06-15T11:30:01.139Z,35
2016-06-15T11:31:01.158Z,35
2016-06-15T11:32:01.192Z,40
2016-06-15T11:33:01.211Z,40
2016-06-15T11:34:01.245Z,45
2016-06-15T11:35:01.295Z,45
2016-06-15T11:36:01.330Z,45
2016-06-15T11:37:02.740Z,45
2016-06-15T11:38:01.710Z,40
2016-06-15T11:39:01.432Z,40
2016-06-15T11:40:01.435Z,40
2016-06-15T11:41:01.438Z,40
2016-06-15T11:42:01.473Z,40
2016-06-15T11:43:01.383Z,40
2016-06-15T11:44:01.526Z,40
2016-06-15T11:45:01.560Z,35
2016-06-15T11:46:01.579Z,35
2016-06-15T11:47:01.614Z,30
2016-06-15T11:48:01.648Z,30
2016-06-15T11:49:01.682Z,30
2016-06-15T11:50:01.701Z,25
2016-06-15T11:51:01.735Z,20
2016-06-15T11:52:01.754Z,15
2016-06-15T11:53:01.789Z,15
2016-06-15T11:54:01.963Z,10
2016-06-15T11:55:01.841Z,10
2016-06-15T11:56:01.890Z,10
2016-06-15T11:57:01.926Z,15
2016-06-15T11:58:01.944Z,15
2016-06-15T11:59:01.947Z,15
2016-06-15T12:00:02.029Z,15
2016-06-15T12:01:02.016Z,15
2016-06-15T12:02:02.035Z,20
2016-06-15T12:03:02.070Z,20
2016-06-15T12:04:02.088Z,25
2016-06-15T12:05:02.122Z,25
2016-06-15T12:06:02.171Z,30
2016-06-15T12:07:01.910Z,30
2016-06-15T12:08:03.271Z,35
2016-06-15T12:09:02.259Z,35
2016-06-15T12:10:02.247Z,35
2016-06-15T12:11:02.281Z,35
2016-06-15T12:12:02.706Z,40
2016-06-15T12:13:02.225Z,40
2016-06-15T12:14:02.415Z,40
2016-06-15T12:15:02.403Z,40
2016-06-15T12:16:02.422Z,45
2016-06-15T12:17:02.533Z,45
2016-06-15T12:18:02.318Z,50
2016-06-15T12:19:02.540Z,50
2016-06-15T12:20:02.543Z,55
2016-06-15T12:21:02.562Z,55
2016-06-15T12:22:02.596Z,60
2016-06-15T12:23:03.176Z,60
2016-06-15T12:24:02.649Z,60
2016-06-15T12:25:02.668Z,65
2016-06-15T12:26:02.561Z,65
2016-06-15T12:27:02.596Z,65
2016-06-15T12:28:02.755Z,65
2016-06-15T12:29:02.774Z,65
2016-06-15T12:30:02.824Z,65
2016-06-15T12:31:02.843Z,70
2016-06-15T12:32:02.877Z,75
2016-06-15T12:33:02.754Z,85
2016-06-15T12:34:02.914Z,90
2016-06-15T12:35:02.996Z,95
2016-06-15T12:36:02.967Z,95
2016-06-15T12:37:03.001Z,95
2016-06-15T12:38:04.864Z,95
2016-06-15T12:39:03.055Z,95
2016-06-15T12:40:03.136Z,95
2016-06-15T12:41:03.124Z,95
2016-06-15T12:42:03.204Z,90
2016-06-15T12:43:03.160Z,90
2016-06-15T12:44:03.195Z,90
2016-06-15T12:45:03.230Z,90
2016-06-15T12:46:03.248Z,90
2016-06-15T12:47:03.298Z,90
2016-06-15T12:48:03.317Z,95
2016-06-15T12:49:03.335Z,100
2016-06-15T12:50:03.245Z,105
2016-06-15T12:51:03.388Z,120
2016-06-15T12:52:03.266Z,115
2016-06-15T12:53:03.457Z,125
2016-06-15T12:54:03.476Z,125
2016-06-15T12:55:03.511Z,125
2016-06-15T12:56:03.560Z,125
2016-06-15T12:57:03.547Z,125
2016-06-15T12:58:03.425Z,125
2016-06-15T12:59:03.601Z,125
2016-06-15T13:00:04.198Z,125
2016-06-15T13:01:03.685Z,125
2016-06-15T13:02:03.766Z,125
2016-06-15T13:03:03.738Z,120
2016-06-15T13:04:03.600Z,115
2016-06-15T13:05:03.791Z,110
2016-06-15T13:06:03.856Z,110
2016-06-15T13:07:03.844Z,105
2016-06-15T13:08:04.503Z,110
2016-06-15T13:09:03.897Z,110
2016-06-15T13:10:03.932Z,110
2016-06-15T13:11:03.965Z,105
2016-06-15T13:12:03.999Z,100
2016-06-15T13:13:04.035Z,100
2016-06-15T13:14:03.896Z,95
2016-06-15T13:15:04.103Z,95
2016-06-15T13:16:04.106Z,90
2016-06-15T13:17:04.140Z,90
2016-06-15T13:18:04.143Z,85
2016-06-15T13:19:04.193Z,85
2016-06-15T13:20:04.212Z,85
2016-06-15T13:21:04.263Z,80
2016-06-15T13:22:04.280Z,80
2016-06-15T13:23:04.174Z,85
2016-06-15T13:24:04.334Z,85
2016-06-15T13:25:04.383Z,90
2016-06-15T13:26:04.387Z,95
2016-06-15T13:27:04.406Z,100
2016-06-15T13:28:04.440Z,105
2016-06-15T13:29:04.473Z,105
2016-06-15T13:30:04.524Z,110
2016-06-15T13:31:04.527Z,110
2016-06-15T13:32:04.405Z,115
2016-06-15T13:33:04.580Z,120
2016-06-15T13:34:04.630Z,120
2016-06-15T13:35:04.634Z,120
2016-06-15T13:36:04.511Z,120
2016-06-15T13:37:04.687Z,120
2016-06-15T13:38:05.112Z,120
2016-06-15T13:39:04.755Z,120
2016-06-15T13:40:04.773Z,115
2016-06-15T13:41:04.808Z,110
2016-06-15T13:42:04.858Z,110
2016-06-15T13:43:04.877Z,105
2016-06-15T13:44:04.895Z,110
2016-06-15T13:45:04.915Z,115
2016-06-15T13:46:04.948Z,125
2016-06-15T13:47:04.967Z,125
2016-06-15T13:48:04.846Z,135
2016-06-15T13:49:05.036Z,125
2016-06-15T13:50:05.055Z,135
2016-06-15T13:51:05.120Z,130
2016-06-15T13:52:05.122Z,135
2016-06-15T13:53:05.423Z,135
2016-06-15T13:54:05.192Z,135
2016-06-15T13:55:05.210Z,120
2016-06-15T13:56:05.073Z,105
2016-06-15T13:57:05.248Z,110
2016-06-15T13:58:05.282Z,135
2016-06-15T13:59:05.316Z,125
2016-06-15T14:00:05.350Z,125
2016-06-15T14:01:05.385Z,125
2016-06-15T14:02:05.435Z,115
2016-06-15T14:03:05.439Z,105
2016-06-15T14:04:05.456Z,110
2016-06-15T14:05:05.507Z,95
2016-06-15T14:06:05.526Z,100
2016-06-15T14:07:05.544Z,105
2016-06-15T14:08:05.844Z,100
2016-06-15T14:09:05.613Z,100
2016-06-15T14:10:05.631Z,95
2016-06-15T14:11:05.650Z,95
2016-06-15T14:12:05.684Z,90
2016-06-15T14:13:05.735Z,80
2016-06-15T14:14:05.753Z,80
2016-06-15T14:15:05.772Z,80
2016-06-15T14:16:05.807Z,90
2016-06-15T14:17:05.857Z,90
2016-06-15T14:18:05.860Z,85
2016-06-15T14:19:05.894Z,80